TimeCST,TemperatureF,Dew PointF,Humidity,Sea Level PressureIn,VisibilityMPH,Wind Direction,Wind SpeedMPH,Gust SpeedMPH,PrecipitationIn,Events,Conditions,WindDirDegrees,DateUTC
12:52 AM,36.0,27.0,70,29.58,10.0,WSW,24.2,35.7,N/A,,Overcast,250,2013-02-11 06:52:00
1:38 AM,35.6,26.6,70,29.58,10.0,West,24.2,35.7,N/A,,Overcast,260,2013-02-11 07:38:00
1:52 AM,35.1,26.1,70,29.61,10.0,WSW,23.0,35.7,N/A,,Overcast,250,2013-02-11 07:52:00
2:52 AM,34.0,23.0,64,29.63,10.0,West,27.6,42.6,N/A,,Overcast,260,2013-02-11 08:52:00
3:52 AM,34.0,23.0,64,29.65,10.0,West,21.9,36.8,N/A,,Overcast,260,2013-02-11 09:52:00
4:52 AM,33.1,23.0,66,29.68,10.0,West,28.8,36.8,N/A,,Overcast,260,2013-02-11 10:52:00
5:52 AM,33.1,23.0,66,29.70,10.0,West,25.3,38.0,N/A,,Overcast,260,2013-02-11 11:52:00
6:52 AM,33.1,21.9,64,29.73,10.0,West,28.8,44.9,N/A,,Overcast,260,2013-02-11 12:52:00
7:52 AM,32.0,21.9,66,29.78,10.0,West,26.5,46.0,N/A,,Overcast,270,2013-02-11 13:52:00
8:52 AM,32.0,21.9,66,29.81,10.0,West,27.6,41.4,N/A,,Overcast,270,2013-02-11 14:52:00
9:52 AM,32.0,21.0,64,29.85,10.0,West,27.6,38.0,N/A,,Overcast,280,2013-02-11 15:52:00
10:52 AM,32.0,21.0,64,29.89,10.0,West,26.5,39.1,N/A,,Overcast,270,2013-02-11 16:52:00
11:52 AM,32.0,21.9,66,29.91,10.0,West,21.9,31.1,N/A,,Overcast,280,2013-02-11 17:52:00
12:52 PM,32.0,21.0,64,29.93,10.0,WNW,18.4,34.5,N/A,,Overcast,290,2013-02-11 18:52:00
1:14 PM,32.0,21.2,64,29.91,10.0,West,19.6,35.7,N/A,,Overcast,280,2013-02-11 19:14:00
1:52 PM,32.0,19.9,61,29.94,10.0,West,25.3,35.7,N/A,,Overcast,280,2013-02-11 19:52:00
2:52 PM,32.0,21.0,64,29.96,10.0,West,28.8,36.8,N/A,,Overcast,280,2013-02-11 20:52:00
3:45 PM,32.0,21.2,64,29.96,10.0,West,24.2,35.7,N/A,,Overcast,270,2013-02-11 21:45:00
3:52 PM,32.0,21.9,66,29.99,10.0,West,18.4,35.7,N/A,,Overcast,280,2013-02-11 21:52:00
4:52 PM,32.0,21.9,66,30.01,10.0,West,20.7,27.6,N/A,,Overcast,280,2013-02-11 22:52:00
5:52 PM,30.9,21.9,69,30.04,10.0,West,19.6,-,N/A,,Overcast,270,2013-02-11 23:52:00
6:52 PM,30.9,21.9,69,30.06,10.0,West,21.9,-,N/A,,Overcast,280,2013-02-12 00:52:00
7:52 PM,30.9,21.9,69,30.07,10.0,WNW,16.1,23.0,N/A,,Overcast,300,2013-02-12 01:52:00
8:52 PM,30.9,21.9,69,30.08,10.0,WNW,11.5,-,N/A,,Overcast,290,2013-02-12 02:52:00
9:52 PM,30.0,21.0,69,30.09,10.0,West,16.1,23.0,N/A,,Overcast,280,2013-02-12 03:52:00
10:52 PM,30.0,21.0,69,30.10,10.0,WNW,11.5,21.9,N/A,,Overcast,290,2013-02-12 04:52:00
11:52 PM,28.9,21.0,72,30.12,10.0,WNW,16.1,24.2,N/A,,Overcast,300,2013-02-12 05:52:00